Time;durP1;ratioP1;P1;durP2;ratioP2;P2;SDS_P1;SDS_P2;PMS_P1;PMS_P2;Temp;Humidity;BMP_temperature;BMP_pressure;BME280_temperature;BME280_humidity;BME280_pressure;Samples;Min_cycle;Max_cycle;Signal;HPM_P1;HPM_P2
2024/01/24 00:00:26;;;;;;;0.28;0.22;;;9.00;99.90;;;;;;5039167;28;20052;-74
2024/01/24 00:02:52;;;;;;;0.77;0.73;;;9.00;99.90;;;;;;5041663;28;20489;-76
2024/01/24 00:05:18;;;;;;;0.57;0.43;;;9.00;99.90;;;;;;5038737;28;20378;-76
2024/01/24 00:07:44;;;;;;;0.10;0.10;;;9.00;99.90;;;;;;5044860;28;20048;-77
2024/01/24 00:10:11;;;;;;;0.20;0.20;;;9.00;99.90;;;;;;5044372;28;20033;-76
2024/01/24 00:12:37;;;;;;;0.10;0.10;;;9.00;99.90;;;;;;5040206;28;20040;-76
2024/01/24 00:15:04;;;;;;;0.88;0.55;;;9.00;99.90;;;;;;5038887;28;20024;-75
2024/01/24 00:17:30;;;;;;;0.73;0.73;;;9.00;99.90;;;;;;5037967;28;20036;-74
2024/01/24 00:19:56;;;;;;;0.10;0.10;;;9.10;99.90;;;;;;5044282;28;20029;-76
2024/01/24 00:22:23;;;;;;;6.32;0.85;;;9.10;99.90;;;;;;5040487;28;20032;-76
2024/01/24 00:24:49;;;;;;;0.20;0.20;;;9.10;99.90;;;;;;5039154;28;20052;-77
2024/01/24 00:27:15;;;;;;;0.10;0.10;;;9.20;99.90;;;;;;5037513;28;20057;-76
2024/01/24 00:29:41;;;;;;;1.75;0.45;;;9.30;99.90;;;;;;5039469;28;20025;-76
2024/01/24 00:32:07;;;;;;;0.98;0.73;;;9.30;99.90;;;;;;5041623;28;20021;-76
2024/01/24 00:34:34;;;;;;;3.58;2.00;;;9.30;99.90;;;;;;5042055;28;20111;-76
2024/01/24 00:37:00;;;;;;;0.13;0.13;;;9.40;99.90;;;;;;5038422;28;20045;-76
2024/01/24 00:39:26;;;;;;;6.80;1.27;;;9.50;99.90;;;;;;5039708;28;20036;-74
2024/01/24 00:41:53;;;;;;;0.10;0.10;;;9.40;99.90;;;;;;5039862;28;20033;-76
2024/01/24 00:44:19;;;;;;;0.17;0.17;;;9.50;99.90;;;;;;5041722;28;20378;-76
2024/01/24 00:46:45;;;;;;;1.27;0.50;;;9.50;99.90;;;;;;5032189;28;20780;-76
2024/01/24 00:49:12;;;;;;;0.30;0.20;;;9.50;99.90;;;;;;5040298;28;20505;-76
2024/01/24 00:51:38;;;;;;;2.55;1.35;;;9.60;99.90;;;;;;5039334;28;20033;-77
2024/01/24 00:54:05;;;;;;;0.20;0.20;;;9.60;99.90;;;;;;5040330;28;20025;-76
2024/01/24 00:56:31;;;;;;;2.53;1.10;;;9.70;99.90;;;;;;5037164;28;20033;-75
2024/01/24 00:58:57;;;;;;;2.17;0.93;;;9.60;99.90;;;;;;5039936;28;20477;-76
2024/01/24 01:01:23;;;;;;;0.43;0.32;;;9.70;99.90;;;;;;5039194;28;20481;-76
2024/01/24 01:03:49;;;;;;;0.28;0.28;;;9.80;99.90;;;;;;5043202;28;20033;-76
2024/01/24 01:06:15;;;;;;;0.13;0.13;;;9.80;99.90;;;;;;5037406;28;20059;-76
2024/01/24 01:08:42;;;;;;;0.10;0.10;;;9.70;99.90;;;;;;5036235;28;20484;-76
2024/01/24 01:11:08;;;;;;;1.02;0.43;;;9.80;99.90;;;;;;5039393;28;20041;-76
2024/01/24 01:13:34;;;;;;;0.10;0.10;;;9.80;99.90;;;;;;5041032;28;20127;-76
2024/01/24 01:16:00;;;;;;;3.58;0.73;;;9.90;99.90;;;;;;5037982;28;20040;-76
2024/01/24 01:18:26;;;;;;;0.50;0.50;;;9.90;99.90;;;;;;5041543;28;20025;-77
2024/01/24 01:20:52;;;;;;;0.80;0.80;;;10.00;99.90;;;;;;5040402;28;20033;-77
2024/01/24 01:23:19;;;;;;;1.52;1.42;;;9.90;99.90;;;;;;5039927;28;20079;-76
2024/01/24 01:25:45;;;;;;;0.10;0.10;;;9.90;99.90;;;;;;5038033;28;20029;-76
2024/01/24 01:28:11;;;;;;;0.10;0.10;;;10.00;99.90;;;;;;5039738;28;20474;-76
2024/01/24 01:30:37;;;;;;;0.98;0.55;;;10.00;99.90;;;;;;5038886;28;20032;-75
2024/01/24 01:33:04;;;;;;;0.20;0.20;;;9.90;99.90;;;;;;5037972;28;20024;-74
2024/01/24 01:35:30;;;;;;;0.25;0.25;;;9.90;99.90;;;;;;5037836;28;20054;-74
2024/01/24 01:37:56;;;;;;;0.30;0.30;;;10.00;99.90;;;;;;5038177;28;20041;-76
2024/01/24 01:40:22;;;;;;;3.50;1.75;;;10.00;99.90;;;;;;5037560;28;20375;-77
2024/01/24 01:42:48;;;;;;;0.20;0.20;;;10.00;99.90;;;;;;5037687;28;20033;-77
2024/01/24 01:45:14;;;;;;;0.30;0.30;;;10.00;96.70;;;;;;5039313;28;20029;-75
2024/01/24 01:47:41;;;;;;;3.22;1.38;;;10.00;99.90;;;;;;5041264;28;20032;-76
2024/01/24 01:50:14;;;;;;;0.10;0.10;;;9.90;99.90;;;;;;5039285;28;20025;-76
2024/01/24 01:52:41;;;;;;;0.10;0.10;;;9.90;99.90;;;;;;5038751;28;20040;-76
2024/01/24 01:55:09;;;;;;;1.17;0.77;;;9.90;99.90;;;;;;5037115;28;20756;-75
2024/01/24 01:57:37;;;;;;;0.32;0.32;;;9.90;99.90;;;;;;5038815;28;20041;-75
2024/01/24 02:00:05;;;;;;;0.52;0.52;;;10.00;99.90;;;;;;5041824;28;20025;-75
2024/01/24 02:02:32;;;;;;;0.10;0.10;;;10.00;98.00;;;;;;5037027;28;20029;-74
2024/01/24 02:04:58;;;;;;;0.13;0.13;;;10.10;96.70;;;;;;5035462;28;20028;-76
2024/01/24 02:07:24;;;;;;;0.10;0.10;;;10.10;99.90;;;;;;5037374;28;20033;-76
2024/01/24 02:09:50;;;;;;;0.65;0.60;;;10.20;96.60;;;;;;5041726;28;20053;-75
2024/01/24 02:12:17;;;;;;;0.15;0.15;;;10.10;99.90;;;;;;5038288;28;20374;-76
2024/01/24 02:14:43;;;;;;;0.10;0.10;;;10.10;99.90;;;;;;5038099;28;20465;-76
2024/01/24 02:17:09;;;;;;;0.10;0.10;;;10.10;99.90;;;;;;5035782;28;20355;-76
2024/01/24 02:19:35;;;;;;;1.65;0.82;;;10.10;99.90;;;;;;5039848;28;20487;-74
2024/01/24 02:22:01;;;;;;;0.10;0.10;;;10.10;99.90;;;;;;5038705;28;20032;-76
2024/01/24 02:24:28;;;;;;;0.13;0.13;;;10.10;99.90;;;;;;5038259;28;20017;-75
2024/01/24 02:26:54;;;;;;;0.60;0.50;;;10.10;99.90;;;;;;5035440;28;20033;-75
2024/01/24 02:29:20;;;;;;;0.20;0.20;;;10.10;99.90;;;;;;5039245;28;20505;-76
2024/01/24 02:31:46;;;;;;;0.10;0.10;;;10.10;99.90;;;;;;5037603;28;20036;-75
2024/01/24 02:34:12;;;;;;;0.20;0.20;;;10.20;99.90;;;;;;5045026;28;20029;-76
2024/01/24 02:36:39;;;;;;;0.30;0.30;;;10.20;99.90;;;;;;5036339;28;20034;-76
2024/01/24 02:39:05;;;;;;;0.30;0.30;;;10.20;99.90;;;;;;5040451;28;20028;-75
2024/01/24 02:41:31;;;;;;;0.47;0.20;;;10.20;99.90;;;;;;5037723;28;20072;-76
2024/01/24 02:43:58;;;;;;;0.70;0.70;;;10.20;99.90;;;;;;5036275;28;20033;-76
2024/01/24 02:46:24;;;;;;;0.10;0.10;;;10.30;99.90;;;;;;5036936;28;20362;-76
2024/01/24 02:48:50;;;;;;;0.10;0.10;;;10.40;99.90;;;;;;5038666;28;20037;-76
2024/01/24 02:51:26;;;;;;;1.75;1.17;;;10.40;99.90;;;;;;5041105;28;20022;-76
2024/01/24 02:53:52;;;;;;;0.13;0.13;;;10.40;99.90;;;;;;5038750;28;20041;-76
2024/01/24 02:56:19;;;;;;;0.10;0.10;;;10.50;99.90;;;;;;5040518;28;20042;-77
2024/01/24 02:58:46;;;;;;;0.10;0.10;;;10.60;99.90;;;;;;5037092;28;20033;-76
2024/01/24 03:01:14;;;;;;;1.05;0.95;;;10.70;96.60;;;;;;5042022;28;20025;-75
2024/01/24 03:03:41;;;;;;;1.30;0.57;;;10.80;72.00;;;;;;5041892;28;20022;-76
2024/01/24 03:06:08;;;;;;;0.20;0.20;;;10.80;63.90;;;;;;5040625;28;20485;-76
2024/01/24 03:08:50;;;;;;;0.30;0.30;;;10.90;71.10;;;;;;5046271;28;20029;-74
2024/01/24 03:11:16;;;;;;;0.32;0.32;;;10.80;67.60;;;;;;5039447;28;20046;-75
2024/01/24 03:13:43;;;;;;;0.20;0.20;;;10.90;53.30;;;;;;5039083;28;20026;-75
2024/01/24 03:16:09;;;;;;;0.30;0.30;;;10.90;54.90;;;;;;5042380;28;20030;-76
2024/01/24 03:18:39;;;;;;;1.35;0.80;;;10.90;62.40;;;;;;5040426;28;20041;-74
2024/01/24 03:21:10;;;;;;;0.35;0.35;;;10.90;52.10;;;;;;5041169;28;20037;-75
2024/01/24 03:23:39;;;;;;;0.22;0.20;;;11.00;50.30;;;;;;5043281;28;20029;-74
2024/01/24 03:26:07;;;;;;;0.10;0.10;;;11.00;46.60;;;;;;5038045;28;20037;-75
2024/01/24 03:28:34;;;;;;;0.10;0.10;;;11.10;42.90;;;;;;5041679;28;20021;-73
2024/01/24 03:31:01;;;;;;;0.75;0.52;;;11.10;34.50;;;;;;5041702;28;20028;-75
2024/01/24 03:33:27;;;;;;;0.20;0.20;;;11.10;35.20;;;;;;5043435;28;20037;-76
2024/01/24 03:35:54;;;;;;;0.10;0.10;;;11.20;42.80;;;;;;5045737;28;20033;-76
2024/01/24 03:38:20;;;;;;;1.02;0.93;;;11.20;34.00;;;;;;5040963;28;20037;-75
2024/01/24 03:40:46;;;;;;;0.20;0.20;;;11.20;37.10;;;;;;5043459;28;20044;-75
2024/01/24 03:43:13;;;;;;;0.10;0.10;;;11.20;37.00;;;;;;5040642;28;20033;-75
2024/01/24 03:45:39;;;;;;;2.35;0.98;;;11.30;38.40;;;;;;5037786;28;20029;-73
2024/01/24 03:48:06;;;;;;;0.55;0.15;;;11.20;33.60;;;;;;5041617;28;20048;-75
2024/01/24 03:50:33;;;;;;;2.92;0.40;;;11.20;40.20;;;;;;5045851;28;20462;-75
2024/01/24 03:53:02;;;;;;;0.63;0.63;;;11.20;58.30;;;;;;5038714;28;20025;-74
2024/01/24 03:55:31;;;;;;;1.75;0.90;;;11.30;43.70;;;;;;5041586;28;20025;-76
2024/01/24 03:57:57;;;;;;;4.80;0.57;;;11.40;29.70;;;;;;5040560;28;20033;-75
2024/01/24 04:00:24;;;;;;;1.13;0.45;;;11.40;24.10;;;;;;5042040;28;20052;-75
2024/01/24 04:02:50;;;;;;;0.43;0.38;;;11.50;16.80;;;;;;5038438;28;20025;-76
2024/01/24 04:05:16;;;;;;;0.10;0.10;;;11.50;28.40;;;;;;5038916;28;20044;-76
2024/01/24 04:07:42;;;;;;;0.20;0.20;;;11.50;15.60;;;;;;5042546;28;20037;-75
2024/01/24 04:10:09;;;;;;;0.10;0.10;;;11.60;15.50;;;;;;5041068;28;20390;-76
2024/01/24 04:12:35;;;;;;;0.40;0.40;;;11.60;7.60;;;;;;5039653;28;20044;-76
2024/01/24 04:15:02;;;;;;;0.43;0.40;;;11.60;8.70;;;;;;5040685;28;20959;-76
2024/01/24 04:17:28;;;;;;;0.30;0.30;;;11.60;8.30;;;;;;5046308;28;20033;-76
2024/01/24 04:19:54;;;;;;;0.80;0.73;;;11.70;8.40;;;;;;5043438;28;20369;-76
2024/01/24 04:22:20;;;;;;;0.20;0.20;;;11.60;10.00;;;;;;5039045;28;20041;-76
2024/01/24 04:24:46;;;;;;;0.63;0.32;;;11.60;18.60;;;;;;5039181;28;20121;-73
2024/01/24 04:27:13;;;;;;;0.30;0.30;;;11.60;33.80;;;;;;5041793;28;20033;-75
2024/01/24 04:29:42;;;;;;;0.32;0.32;;;11.60;30.20;;;;;;5040582;28;20026;-73
2024/01/24 04:32:09;;;;;;;0.10;0.10;;;11.60;38.00;;;;;;5041514;28;20026;-75
2024/01/24 04:34:36;;;;;;;0.20;0.20;;;11.70;33.70;;;;;;5036698;28;20030;-77
2024/01/24 04:37:02;;;;;;;0.40;0.40;;;11.70;36.80;;;;;;5039206;28;20619;-76
2024/01/24 04:39:29;;;;;;;0.10;0.10;;;11.70;31.20;;;;;;5039836;28;20025;-76
2024/01/24 04:41:55;;;;;;;0.30;0.30;;;11.70;27.90;;;;;;5041589;28;20028;-75
2024/01/24 04:44:21;;;;;;;0.10;0.10;;;11.70;35.10;;;;;;5038478;28;20045;-75
2024/01/24 04:46:47;;;;;;;0.10;0.10;;;11.70;43.40;;;;;;5035060;28;20048;-74
2024/01/24 04:49:13;;;;;;;0.20;0.20;;;11.70;40.50;;;;;;5042287;28;20029;-75
2024/01/24 04:51:40;;;;;;;0.30;0.30;;;11.70;49.30;;;;;;5036194;28;20029;-75
2024/01/24 04:54:07;;;;;;;0.10;0.10;;;11.70;44.90;;;;;;5041710;28;20040;-74
2024/01/24 04:56:33;;;;;;;0.20;0.20;;;11.70;48.00;;;;;;5036603;28;20029;-76
2024/01/24 04:58:59;;;;;;;0.10;0.10;;;11.80;30.40;;;;;;5039433;28;20045;-76
2024/01/24 05:01:26;;;;;;;0.10;0.10;;;11.80;27.40;;;;;;5042444;28;20032;-76
2024/01/24 05:03:52;;;;;;;0.57;0.57;;;11.90;33.60;;;;;;5040711;28;20037;-76
2024/01/24 05:06:18;;;;;;;0.10;0.10;;;11.90;26.60;;;;;;5033986;28;20029;-75
2024/01/24 05:08:45;;;;;;;0.10;0.10;;;11.80;25.10;;;;;;5042777;28;20023;-74
2024/01/24 05:11:11;;;;;;;0.45;0.43;;;11.80;28.00;;;;;;5040551;28;20029;-76
2024/01/24 05:13:37;;;;;;;0.38;0.38;;;11.80;31.60;;;;;;5036904;28;20750;-76
2024/01/24 05:16:04;;;;;;;0.10;0.10;;;11.90;27.50;;;;;;5040658;28;20580;-76
2024/01/24 05:18:30;;;;;;;0.20;0.20;;;11.90;20.70;;;;;;5040538;28;20382;-76
2024/01/24 05:20:56;;;;;;;0.10;0.10;;;12.00;10.30;;;;;;5038345;28;20033;-76
2024/01/24 05:23:22;;;;;;;1.00;0.65;;;12.00;8.40;;;;;;5039975;28;20044;-74
2024/01/24 05:25:49;;;;;;;0.30;0.30;;;12.00;5.60;;;;;;5038302;28;20030;-75
2024/01/24 05:28:15;;;;;;;0.10;0.10;;;12.10;1.00;;;;;;5036729;28;20045;-79
2024/01/24 05:30:41;;;;;;;0.15;0.15;;;12.00;1.00;;;;;;5040984;28;20427;-79
2024/01/24 05:33:07;;;;;;;0.68;0.68;;;11.90;11.90;;;;;;5041168;28;20454;-78
2024/01/24 05:35:33;;;;;;;0.30;0.30;;;11.90;18.30;;;;;;5038900;28;20025;-79
2024/01/24 05:37:59;;;;;;;0.38;0.38;;;12.00;13.30;;;;;;5036234;28;20033;-79
2024/01/24 05:40:26;;;;;;;0.17;0.17;;;12.00;18.90;;;;;;5038732;28;20045;-79
2024/01/24 05:42:52;;;;;;;2.05;1.17;;;11.90;22.70;;;;;;5037367;28;20049;-79
2024/01/24 05:45:18;;;;;;;2.38;0.95;;;11.90;35.10;;;;;;5041051;28;20385;-79
2024/01/24 05:47:45;;;;;;;0.85;0.60;;;11.90;49.00;;;;;;5038244;28;20028;-78
2024/01/24 05:50:15;;;;;;;6.03;0.55;;;12.00;48.60;;;;;;5038422;28;20036;-80
2024/01/24 05:52:42;;;;;;;1.15;0.85;;;11.90;47.20;;;;;;5039863;28;20041;-77
2024/01/24 05:55:12;;;;;;;0.10;0.10;;;11.90;63.30;;;;;;5041361;28;20033;-77
2024/01/24 05:57:39;;;;;;;0.35;0.35;;;11.90;73.60;;;;;;5045008;28;20040;-79
2024/01/24 06:00:13;;;;;;;0.13;0.13;;;11.90;78.20;;;;;;5037471;28;20509;-78
2024/01/24 06:02:40;;;;;;;3.13;1.30;;;11.90;81.50;;;;;;5048759;28;20029;-79
2024/01/24 06:05:07;;;;;;;0.52;0.30;;;11.80;95.60;;;;;;5035761;28;20037;-80
2024/01/24 06:07:34;;;;;;;0.20;0.20;;;11.90;99.90;;;;;;5040738;28;20028;-78
2024/01/24 06:10:00;;;;;;;0.20;0.20;;;11.80;99.90;;;;;;5034037;28;20025;-80
2024/01/24 06:12:27;;;;;;;0.20;0.20;;;11.80;99.90;;;;;;5037056;28;20462;-78
2024/01/24 06:14:56;;;;;;;0.35;0.30;;;11.80;99.90;;;;;;5041199;28;20029;-80
2024/01/24 06:17:22;;;;;;;0.17;0.17;;;11.80;99.90;;;;;;5039711;28;20037;-78
2024/01/24 06:19:52;;;;;;;0.98;0.35;;;11.80;99.90;;;;;;5035976;28;20029;-78
2024/01/24 06:22:19;;;;;;;0.23;0.10;;;11.80;99.90;;;;;;5042179;28;20052;-79
2024/01/24 06:24:45;;;;;;;0.10;0.10;;;11.80;99.90;;;;;;5047497;28;20049;-77
2024/01/24 06:27:12;;;;;;;0.20;0.20;;;11.80;99.90;;;;;;5045201;28;20051;-77
2024/01/24 06:29:38;;;;;;;0.17;0.17;;;11.80;99.90;;;;;;5059337;28;20033;-79
2024/01/24 06:32:04;;;;;;;0.20;0.20;;;11.80;99.90;;;;;;5038520;28;20045;-78
2024/01/24 06:34:31;;;;;;;0.13;0.13;;;11.70;99.90;;;;;;5045493;28;20025;-79
2024/01/24 06:36:57;;;;;;;0.10;0.10;;;11.70;99.90;;;;;;5040686;28;20039;-78
2024/01/24 06:39:23;;;;;;;0.28;0.28;;;11.80;99.90;;;;;;5041739;28;20052;-78
2024/01/24 06:41:53;;;;;;;0.10;0.10;;;11.80;99.90;;;;;;5040270;28;20045;-78
2024/01/24 06:44:19;;;;;;;14.00;0.60;;;11.80;99.90;;;;;;5049373;28;20071;-79
2024/01/24 06:46:46;;;;;;;0.45;0.45;;;11.80;99.90;;;;;;5040378;28;20450;-77
2024/01/24 06:49:12;;;;;;;0.20;0.20;;;11.80;99.90;;;;;;5045448;28;20040;-78
2024/01/24 06:51:38;;;;;;;0.30;0.30;;;11.80;99.90;;;;;;5040939;28;20025;-79
2024/01/24 06:54:06;;;;;;;0.65;0.20;;;11.70;99.90;;;;;;5043146;28;20034;-78
2024/01/24 06:56:32;;;;;;;0.30;0.30;;;11.70;99.90;;;;;;5045162;28;20384;-80
2024/01/24 06:58:59;;;;;;;0.10;0.10;;;11.60;99.90;;;;;;5042461;28;20033;-79
2024/01/24 07:01:26;;;;;;;0.17;0.17;;;11.60;99.90;;;;;;5041158;28;20053;-80
2024/01/24 07:03:53;;;;;;;0.15;0.15;;;11.60;99.90;;;;;;5040249;28;20033;-79
2024/01/24 07:06:19;;;;;;;0.30;0.30;;;11.60;99.90;;;;;;5046891;28;20041;-78
2024/01/24 07:08:45;;;;;;;0.10;0.10;;;11.60;1.00;;;;;;5046005;28;20366;-77
2024/01/24 07:11:11;;;;;;;1.77;0.90;;;11.60;1.00;;;;;;5046968;28;20048;-79
2024/01/24 07:13:38;;;;;;;0.10;0.10;;;11.60;1.00;;;;;;5042282;28;20020;-79
2024/01/24 07:16:04;;;;;;;0.20;0.20;;;11.60;1.00;;;;;;5040896;28;20459;-78
2024/01/24 07:18:31;;;;;;;0.10;0.10;;;11.60;1.00;;;;;;5040802;28;20029;-78
2024/01/24 07:20:58;;;;;;;0.65;0.65;;;11.60;1.00;;;;;;5047146;28;20041;-77
2024/01/24 07:23:24;;;;;;;0.60;0.60;;;11.60;1.00;;;;;;5042895;28;20044;-75
2024/01/24 07:25:51;;;;;;;0.38;0.38;;;11.60;1.00;;;;;;5037114;28;20378;-77
2024/01/24 07:28:18;;;;;;;0.10;0.10;;;11.60;1.00;;;;;;5042732;28;20048;-76
2024/01/24 07:30:45;;;;;;;0.40;0.40;;;11.60;1.00;;;;;;5044785;28;20029;-76
2024/01/24 07:33:11;;;;;;;1.67;1.02;;;11.60;1.00;;;;;;5042250;28;20033;-78
2024/01/24 07:35:37;;;;;;;0.20;0.20;;;11.60;1.00;;;;;;5039064;28;20030;-76
2024/01/24 07:38:03;;;;;;;0.65;0.50;;;11.60;1.00;;;;;;5040754;28;20034;-79
2024/01/24 07:40:29;;;;;;;0.43;0.43;;;11.70;1.00;;;;;;5042547;28;20037;-78
2024/01/24 07:42:56;;;;;;;0.10;0.10;;;11.60;1.00;;;;;;5044664;28;20068;-77
2024/01/24 07:45:22;;;;;;;0.10;0.10;;;11.60;1.00;;;;;;5038328;28;20473;-77
2024/01/24 07:47:50;;;;;;;0.10;0.10;;;11.70;1.00;;;;;;5047626;28;20049;-77
2024/01/24 07:50:16;;;;;;;0.75;0.65;;;11.70;1.00;;;;;;5040417;28;20029;-78
2024/01/24 07:52:43;;;;;;;0.20;0.20;;;11.70;1.00;;;;;;5038477;28;20029;-78
2024/01/24 07:55:10;;;;;;;0.55;0.55;;;11.80;1.00;;;;;;5039378;28;20021;-79
2024/01/24 07:57:37;;;;;;;0.10;0.10;;;11.80;1.00;;;;;;5040266;28;20037;-79
2024/01/24 08:00:06;;;;;;;0.50;0.50;;;11.70;1.00;;;;;;5045303;28;20033;-79
2024/01/24 08:02:32;;;;;;;0.38;0.38;;;11.60;33.90;;;;;;5044726;28;20449;-80
2024/01/24 08:04:59;;;;;;;0.40;0.17;;;11.50;99.90;;;;;;5039844;28;20052;-78
2024/01/24 08:07:26;;;;;;;0.20;0.20;;;11.50;99.90;;;;;;5040625;28;20029;-78
2024/01/24 08:09:52;;;;;;;0.10;0.10;;;11.40;99.90;;;;;;5044560;28;20037;-78
2024/01/24 08:12:19;;;;;;;0.13;0.10;;;11.40;99.90;;;;;;5041260;28;20034;-78
2024/01/24 08:14:45;;;;;;;0.10;0.10;;;11.40;99.90;;;;;;5042746;28;20400;-78
2024/01/24 08:17:11;;;;;;;0.10;0.10;;;11.40;99.90;;;;;;5038795;28;20048;-79
2024/01/24 08:19:38;;;;;;;0.10;0.10;;;11.40;1.00;;;;;;5040255;28;20036;-79
2024/01/24 08:22:05;;;;;;;0.10;0.10;;;11.40;1.00;;;;;;5041556;28;20030;-80
2024/01/24 08:24:31;;;;;;;0.47;0.47;;;11.40;1.00;;;;;;5039629;28;20048;-78
2024/01/24 08:26:58;;;;;;;0.10;0.10;;;11.30;1.00;;;;;;5045745;28;20039;-79
2024/01/24 08:29:25;;;;;;;0.10;0.10;;;11.40;1.00;;;;;;5040380;28;20450;-79
2024/01/24 08:31:52;;;;;;;0.10;0.10;;;11.30;1.00;;;;;;5038425;28;20048;-79
2024/01/24 08:34:18;;;;;;;0.10;0.10;;;11.40;1.00;;;;;;5059246;28;20036;-78
2024/01/24 08:36:44;;;;;;;0.10;0.10;;;11.40;1.00;;;;;;5042575;28;20029;-79
2024/01/24 08:39:10;;;;;;;0.10;0.10;;;11.40;1.00;;;;;;5038300;28;20033;-78
2024/01/24 08:41:37;;;;;;;2.47;0.65;;;11.40;1.00;;;;;;5039256;28;20056;-78
2024/01/24 08:44:04;;;;;;;0.30;0.30;;;11.40;1.00;;;;;;5041612;28;20040;-78
2024/01/24 08:46:31;;;;;;;0.20;0.20;;;11.50;1.00;;;;;;5042258;28;20021;-79
2024/01/24 08:48:57;;;;;;;0.10;0.10;;;11.50;1.00;;;;;;5038129;28;20381;-79
2024/01/24 08:51:25;;;;;;;0.25;0.20;;;11.50;1.00;;;;;;5044220;28;20033;-80
2024/01/24 08:53:51;;;;;;;0.52;0.35;;;11.60;99.90;;;;;;5038990;28;20463;-80
2024/01/24 08:56:18;;;;;;;0.73;0.50;;;11.50;99.90;;;;;;5049806;28;20033;-80
2024/01/24 08:58:44;;;;;;;0.38;0.28;;;11.60;99.90;;;;;;5044042;28;20041;-81
2024/01/24 09:01:10;;;;;;;0.35;0.35;;;11.60;99.90;;;;;;5040348;28;20033;-81
2024/01/24 09:03:36;;;;;;;0.10;0.10;;;11.80;99.90;;;;;;5041578;28;20037;-81
2024/01/24 09:06:03;;;;;;;0.10;0.10;;;12.00;99.90;;;;;;5039665;28;20037;-80
2024/01/24 09:08:29;;;;;;;0.10;0.10;;;12.10;99.90;;;;;;5042007;28;20037;-80
2024/01/24 09:10:55;;;;;;;0.10;0.10;;;12.30;1.00;;;;;;5039663;28;20045;-78
2024/01/24 09:13:22;;;;;;;0.10;0.10;;;12.50;1.00;;;;;;5041500;28;20021;-79
2024/01/24 09:15:49;;;;;;;0.10;0.10;;;12.80;99.90;;;;;;5040751;28;20044;-78
2024/01/24 09:18:17;;;;;;;0.10;0.10;;;12.70;99.90;;;;;;5040980;28;20025;-79
2024/01/24 09:20:44;;;;;;;0.10;0.10;;;12.70;99.90;;;;;;5039431;28;20446;-79
2024/01/24 09:23:10;;;;;;;0.03;0.03;;;12.80;99.90;;;;;;5039390;28;20271;-78
2024/01/24 09:25:36;;;;;;;0.10;0.10;;;12.90;99.90;;;;;;5041304;28;20039;-78
2024/01/24 09:28:02;;;;;;;0.10;0.10;;;13.10;99.90;;;;;;5042273;28;20332;-80
2024/01/24 09:30:30;;;;;;;0.20;0.20;;;13.10;99.90;;;;;;5040945;28;20033;-79
2024/01/24 09:32:56;;;;;;;0.00;0.00;;;13.10;99.90;;;;;;5039601;28;20059;-81
2024/01/24 09:35:23;;;;;;;0.20;0.20;;;13.10;99.90;;;;;;5040361;28;20365;-78
2024/01/24 09:37:49;;;;;;;0.17;0.17;;;13.10;99.90;;;;;;5039554;28;20418;-82
2024/01/24 09:40:15;;;;;;;0.10;0.10;;;13.20;99.90;;;;;;5042158;28;20049;-80
2024/01/24 09:42:43;;;;;;;0.20;0.20;;;13.30;1.00;;;;;;5040924;28;20473;-79
2024/01/24 09:45:10;;;;;;;0.10;0.10;;;13.40;1.00;;;;;;5033766;28;20026;-78
2024/01/24 09:47:38;;;;;;;0.10;0.10;;;13.40;1.00;;;;;;5039685;28;20021;-80
2024/01/24 09:50:06;;;;;;;0.10;0.10;;;13.50;1.00;;;;;;5038859;28;20036;-79
2024/01/24 09:52:33;;;;;;;0.10;0.10;;;13.50;1.00;;;;;;5038925;28;20029;-82
2024/01/24 09:55:04;;;;;;;0.00;0.00;;;13.50;99.90;;;;;;5037615;28;20026;-76
2024/01/24 09:57:31;;;;;;;;;;;13.50;99.90;;;;;;5037655;28;20021;-82
2024/01/24 09:59:57;;;;;;;0.00;0.00;;;13.40;99.90;;;;;;5039754;28;19924;-80
2024/01/24 10:02:26;;;;;;;0.10;0.10;;;13.40;99.90;;;;;;5038595;28;20040;-82
2024/01/24 10:04:52;;;;;;;0.25;0.25;;;13.40;99.90;;;;;;5039064;28;20489;-82
2024/01/24 10:07:19;;;;;;;0.03;0.03;;;13.40;99.90;;;;;;5039572;28;20033;-79
2024/01/24 10:09:47;;;;;;;0.10;0.10;;;13.40;99.90;;;;;;5031144;28;20045;-78
2024/01/24 10:12:13;;;;;;;0.10;0.10;;;13.60;99.90;;;;;;5042142;28;20030;-79
2024/01/24 10:14:42;;;;;;;0.10;0.10;;;13.60;99.90;;;;;;5035644;28;20517;-76
2024/01/24 10:17:11;;;;;;;0.60;0.55;;;13.60;99.90;;;;;;5037256;28;20040;-77
2024/01/24 10:19:38;;;;;;;0.10;0.10;;;13.70;83.30;;;;;;5042777;28;20469;-80
2024/01/24 10:22:04;;;;;;;0.10;0.10;;;13.80;67.10;;;;;;5040641;28;20041;-77
2024/01/24 10:24:33;;;;;;;0.10;0.10;;;13.90;64.50;;;;;;5039110;28;20029;-77
2024/01/24 10:27:00;;;;;;;0.10;0.10;;;13.90;11.70;;;;;;5038939;28;20051;-76
2024/01/24 10:29:26;;;;;;;0.10;0.10;;;13.80;11.30;;;;;;5036206;28;20152;-77
2024/01/24 10:31:58;;;;;;;0.20;0.20;;;13.70;21.40;;;;;;5040811;28;20451;-80
2024/01/24 10:34:27;;;;;;;0.10;0.10;;;13.70;16.00;;;;;;5039735;28;20386;-78
2024/01/24 10:36:54;;;;;;;0.10;0.10;;;13.70;49.20;;;;;;5035725;28;20458;-77
2024/01/24 10:39:22;;;;;;;0.20;0.20;;;13.70;71.70;;;;;;5036407;28;20056;-77
2024/01/24 10:41:54;;;;;;;0.38;0.38;;;13.70;80.80;;;;;;5055095;28;20057;-77
2024/01/24 10:44:25;;;;;;;0.52;0.32;;;13.80;61.30;;;;;;5035431;28;20048;-77
2024/01/24 10:46:52;;;;;;;0.10;0.10;;;13.90;26.80;;;;;;5045640;28;20036;-76
2024/01/24 10:49:19;;;;;;;0.08;0.08;;;14.10;16.90;;;;;;5038179;28;20036;-76
2024/01/24 10:51:46;;;;;;;0.10;0.10;;;14.00;10.40;;;;;;5036866;28;20458;-76
2024/01/24 10:54:17;;;;;;;0.10;0.10;;;14.00;1.00;;;;;;5040075;28;20037;-77
2024/01/24 10:56:49;;;;;;;0.10;0.10;;;13.90;1.00;;;;;;5042127;28;20041;-78
2024/01/24 10:59:17;;;;;;;0.20;0.20;;;13.90;1.00;;;;;;5035028;28;20271;-76
2024/01/24 11:01:44;;;;;;;0.20;0.20;;;13.80;1.00;;;;;;5036843;28;20044;-77
2024/01/24 11:04:15;;;;;;;0.70;0.45;;;13.80;1.00;;;;;;5039969;28;20029;-76
2024/01/24 11:06:47;;;;;;;0.10;0.10;;;13.70;1.00;;;;;;5039171;28;20030;-77
2024/01/24 11:09:33;;;;;;;0.28;0.28;;;13.60;1.00;;;;;;5037662;28;20029;-77
2024/01/24 11:11:59;;;;;;;4.40;1.13;;;13.60;1.00;;;;;;5042693;28;20029;-77
2024/01/24 11:14:29;;;;;;;0.28;0.28;;;13.60;1.00;;;;;;5048424;28;20036;-76
2024/01/24 11:16:58;;;;;;;1.75;0.80;;;13.50;1.00;;;;;;5040177;28;20040;-77
2024/01/24 11:19:24;;;;;;;0.93;0.88;;;13.50;1.00;;;;;;5023112;28;20049;-75
2024/01/24 11:21:52;;;;;;;0.10;0.10;;;13.50;1.00;;;;;;5049537;28;20061;-76
2024/01/24 11:24:46;;;;;;;2.50;1.00;;;13.50;1.00;;;;;;5034893;28;20032;-75
2024/01/24 11:27:33;;;;;;;0.10;0.10;;;13.50;1.00;;;;;;5039765;28;20042;-76
2024/01/24 11:30:11;;;;;;;0.17;0.17;;;13.50;1.00;;;;;;5056340;28;20049;-75
2024/01/24 11:32:44;;;;;;;0.38;0.20;;;13.60;1.00;;;;;;5050761;28;20045;-76
2024/01/24 11:35:33;;;;;;;0.10;0.10;;;13.60;1.00;;;;;;5041319;28;20038;-75
2024/01/24 11:38:01;;;;;;;0.25;0.25;;;13.50;1.00;;;;;;5050084;28;20045;-75
2024/01/24 11:40:31;;;;;;;0.43;0.43;;;13.50;1.00;;;;;;5056471;28;20474;-74
2024/01/24 11:42:58;;;;;;;0.52;0.35;;;13.50;1.00;;;;;;5039056;28;20042;-75
2024/01/24 11:45:25;;;;;;;0.10;0.10;;;13.50;1.00;;;;;;5038809;28;20037;-75
2024/01/24 11:47:52;;;;;;;0.85;0.45;;;13.50;1.00;;;;;;5041054;28;20025;-77
2024/01/24 11:50:19;;;;;;;0.30;0.30;;;13.50;1.00;;;;;;5027815;28;20048;-76
2024/01/24 11:52:46;;;;;;;4.18;0.90;;;13.60;1.00;;;;;;5040863;28;20033;-76
2024/01/24 11:55:13;;;;;;;0.25;0.25;;;13.60;1.00;;;;;;5033976;28;20034;-75
2024/01/24 11:57:39;;;;;;;0.52;0.50;;;13.60;1.00;;;;;;5044904;28;20037;-75
2024/01/24 12:00:08;;;;;;;0.10;0.10;;;13.60;1.00;;;;;;5039848;28;20390;-76
2024/01/24 12:02:35;;;;;;;0.10;0.10;;;13.60;1.00;;;;;;5049746;28;20037;-75
2024/01/24 12:05:03;;;;;;;0.73;0.50;;;13.50;1.00;;;;;;5037340;28;20033;-77
2024/01/24 12:07:30;;;;;;;0.40;0.40;;;13.60;99.90;;;;;;5033323;28;20391;-76
2024/01/24 12:09:56;;;;;;;0.25;0.22;;;13.50;99.90;;;;;;5044841;28;20116;-75
2024/01/24 12:12:23;;;;;;;0.13;0.13;;;13.50;99.90;;;;;;5040169;28;20034;-76
2024/01/24 12:14:50;;;;;;;0.10;0.10;;;13.50;99.90;;;;;;5039489;28;20117;-76
2024/01/24 12:17:16;;;;;;;0.20;0.20;;;13.50;99.90;;;;;;5041170;28;20037;-78
2024/01/24 12:19:44;;;;;;;2.90;1.05;;;13.50;99.90;;;;;;5045917;28;20044;-77
2024/01/24 12:22:12;;;;;;;1.00;0.88;;;13.40;99.90;;;;;;5040291;28;20069;-77
2024/01/24 12:24:40;;;;;;;0.50;0.28;;;13.40;99.90;;;;;;5039835;28;20493;-77
2024/01/24 12:27:07;;;;;;;0.20;0.20;;;13.30;99.90;;;;;;5036993;28;20037;-83
2024/01/24 12:29:34;;;;;;;0.60;0.60;;;13.30;99.90;;;;;;5041171;28;20037;-76
2024/01/24 12:32:02;;;;;;;0.68;0.68;;;13.40;99.90;;;;;;5044690;28;20034;-74
2024/01/24 12:34:29;;;;;;;1.58;0.13;;;13.40;99.90;;;;;;5049982;28;20041;-79
2024/01/24 12:37:02;;;;;;;0.55;0.55;;;13.30;99.90;;;;;;5046588;28;20030;-76
2024/01/24 12:39:34;;;;;;;2.15;1.13;;;13.30;99.90;;;;;;5039675;28;20071;-78
2024/01/24 12:42:01;;;;;;;0.10;0.10;;;13.30;99.90;;;;;;5040467;28;20057;-78
2024/01/24 12:44:27;;;;;;;0.10;0.10;;;13.30;99.90;;;;;;5025613;28;20048;-78
2024/01/24 12:46:59;;;;;;;1.05;0.80;;;13.20;99.90;;;;;;5040757;28;20040;-78
2024/01/24 12:49:26;;;;;;;0.55;0.55;;;13.20;99.90;;;;;;5049451;28;20048;-78